Savoonga Airport
PASA : rendu visible

Aérodrome :











RETROUVEZ-NOUS SUR...

 
LOGIN :

S'inscrire | Disclaimer

   EN    FR    IT 

 









Légende :    VFR   VFR Marginal   IFR   IFR Intensif   IFR Très Intensif
Visi : 
Plafond : 
>= 8 km
>= 3000ft
5 à 8 km
1000 à 3000 ft
1500m à 5 km
500 à 1000 ft
800 à 1500m
200 à 500 ft
< 800m
< 200 ft
Symboles :   Orages  Brouillard  Fortes neiges  Fortes précipitations  Vent > 20 kt






- Altitude de l'aérodrome : 53 ft
- Code IATA : SVA


PASA - Savoonga

DERNIER METAR :
  • 072256Z AUTO 00000KT 10SM CLR M05/M16 A3006 RMK AO2 SLP179 T10501156 FZRANO

METARs EXPIRÉS :
  • 072156Z AUTO 00000KT 10SM CLR M07/M18 A3006 RMK AO2 SLP181 T10671178 FZRANO
  • 072056Z AUTO 00000KT 10SM CLR M11/M18 A3007 RMK AO2 SLP182 T11061178 50003 FZRANO

TAF N/A



MET'MAP, la Météo Aéronautique d'un coup d'oeil ! - Copyright ORBIFLY Décembre 2007 - Disclaimer

ORBIFLY MET'MAP TEAM :

Programmation & Développement : Alexandra Zaïnal
Sur une idée originale de : Baudouin d'Aumeries
Assistance à la programmation : Marc-Olivier Méhu
Soutien technique & logistique : Manuel Goepfert

Contact : metmap@orbifly.com




SOURCES & CREDITS :

   NOAA       Earth
Advisory